Time;durP1;ratioP1;P1;durP2;ratioP2;P2;SDS_P1;SDS_P2;PMS_P1;PMS_P2;Temp;Humidity;BMP_temperature;BMP_pressure;BME280_temperature;BME280_humidity;BME280_pressure;Samples;Min_cycle;Max_cycle;Signal;HPM_P1;HPM_P2
2021/10/31 00:02:11;;;;;;;15.27;7.18;;;;;;;;;;5029212;28;20383;-69
2021/10/31 00:04:38;;;;;;;18.85;7.72;;;;;;;;;;5047526;28;20063;-69
2021/10/31 00:07:04;;;;;;;14.35;7.15;;;;;;;;;;5042738;28;20018;-69
2021/10/31 00:09:30;;;;;;;18.35;6.72;;;;;;;;;;5030313;28;20032;-69
2021/10/31 00:11:56;;;;;;;18.27;7.03;;;;;;;;;;5025912;28;21580;-69
2021/10/31 00:14:23;;;;;;;12.73;6.35;;;;;;;;;;5047641;28;20036;-69
2021/10/31 00:16:49;;;;;;;19.45;7.78;;;;;;;;;;5039152;28;20036;-69
2021/10/31 00:19:15;;;;;;;17.38;8.52;;;;;;;;;;5045310;28;20025;-69
2021/10/31 00:21:41;;;;;;;16.88;6.35;;;;;;;;;;5047089;28;20373;-69
2021/10/31 00:24:08;;;;;;;15.50;6.25;;;;;;;;;;5039766;28;20021;-69
2021/10/31 00:26:34;;;;;;;14.48;6.68;;;;;;;;;;5043942;28;20028;-69
2021/10/31 00:29:00;;;;;;;14.85;5.75;;;;;;;;;;5036917;28;20495;-69
2021/10/31 00:31:26;;;;;;;16.38;6.13;;;;;;;;;;5039909;28;20526;-69
2021/10/31 00:33:52;;;;;;;13.73;6.47;;;;;;;;;;5047040;28;20032;-69
2021/10/31 00:36:18;;;;;;;15.40;6.28;;;;;;;;;;5048710;28;20248;-69
2021/10/31 00:38:44;;;;;;;13.02;6.20;;;;;;;;;;5030517;28;20423;-69
2021/10/31 00:41:10;;;;;;;13.25;6.43;;;;;;;;;;5048153;28;20511;-69
2021/10/31 00:43:36;;;;;;;17.13;5.75;;;;;;;;;;5040178;28;20130;-69
2021/10/31 00:46:02;;;;;;;20.45;7.53;;;;;;;;;;5050556;28;20580;-68
2021/10/31 00:48:28;;;;;;;15.40;6.10;;;;;;;;;;5047755;28;20467;-69
2021/10/31 00:50:54;;;;;;;12.63;6.20;;;;;;;;;;5054201;28;20403;-69
2021/10/31 00:53:21;;;;;;;12.23;6.05;;;;;;;;;;5055428;28;20033;-69
2021/10/31 00:55:47;;;;;;;18.55;6.30;;;;;;;;;;5049532;28;20082;-69
2021/10/31 00:58:13;;;;;;;19.45;6.72;;;;;;;;;;5047033;28;20611;-69
2021/10/31 01:00:40;;;;;;;17.60;5.82;;;;;;;;;;5042804;28;20021;-69
2021/10/31 01:03:06;;;;;;;13.80;5.72;;;;;;;;;;5045890;28;20076;-69
2021/10/31 01:05:35;;;;;;;11.85;6.07;;;;;;;;;;5049670;28;20439;-69
2021/10/31 01:08:21;;;;;;;14.43;5.80;;;;;;;;;;5048092;28;20021;-69
2021/10/31 01:10:56;;;;;;;12.40;6.25;;;;;;;;;;5044895;28;20021;-69
2021/10/31 01:13:41;;;;;;;16.05;6.20;;;;;;;;;;5051729;28;20411;-69
2021/10/31 01:16:09;;;;;;;11.65;6.32;;;;;;;;;;5047197;28;20047;-69
2021/10/31 01:18:52;;;;;;;10.93;6.03;;;;;;;;;;5047166;28;20047;-69
2021/10/31 01:21:23;;;;;;;12.43;5.63;;;;;;;;;;5050065;28;20487;-69
2021/10/31 01:23:52;;;;;;;11.38;5.63;;;;;;;;;;5051953;28;20029;-69
2021/10/31 01:26:37;;;;;;;11.98;5.20;;;;;;;;;;5039636;28;20025;-69
2021/10/31 01:29:09;;;;;;;10.80;5.30;;;;;;;;;;5049234;28;20395;-69
2021/10/31 01:31:35;;;;;;;15.38;5.78;;;;;;;;;;5047186;28;20033;-69
2021/10/31 01:34:01;;;;;;;12.73;5.47;;;;;;;;;;5045919;28;20024;-69
2021/10/31 01:36:30;;;;;;;9.48;5.35;;;;;;;;;;5034096;28;20021;-69
2021/10/31 01:39:05;;;;;;;10.80;6.07;;;;;;;;;;5039532;28;20241;-69
2021/10/31 01:41:51;;;;;;;10.00;5.97;;;;;;;;;;5037862;28;20033;-69
2021/10/31 01:44:26;;;;;;;9.43;5.78;;;;;;;;;;5023688;28;20121;-69
2021/10/31 01:47:01;;;;;;;12.35;5.55;;;;;;;;;;5048956;28;20101;-69
2021/10/31 01:49:50;;;;;;;15.30;5.70;;;;;;;;;;5051350;28;20112;-69
2021/10/31 01:52:19;;;;;;;10.95;5.97;;;;;;;;;;5050449;28;20438;-69
2021/10/31 01:54:58;;;;;;;16.15;5.90;;;;;;;;;;5038130;28;20037;-69
2021/10/31 01:57:25;;;;;;;8.68;5.72;;;;;;;;;;5039016;28;20025;-69
2021/10/31 01:59:56;;;;;;;12.35;5.53;;;;;;;;;;5045938;28;20032;-69
2021/10/31 02:02:23;;;;;;;14.63;6.50;;;;;;;;;;5044477;28;20443;-69
2021/10/31 02:04:51;;;;;;;13.75;5.80;;;;;;;;;;5042360;28;20029;-69
2021/10/31 02:07:19;;;;;;;15.63;6.55;;;;;;;;;;5042478;28;20021;-69
2021/10/31 02:09:45;;;;;;;20.48;6.78;;;;;;;;;;5047268;28;20044;-68
2021/10/31 02:12:15;;;;;;;12.57;6.38;;;;;;;;;;5040377;28;20079;-69
2021/10/31 02:14:42;;;;;;;17.08;6.55;;;;;;;;;;5047389;28;20407;-69
2021/10/31 02:17:08;;;;;;;17.75;7.07;;;;;;;;;;5036991;28;20024;-69
2021/10/31 02:19:45;;;;;;;17.92;7.80;;;;;;;;;;5035402;28;20029;-69
2021/10/31 02:22:16;;;;;;;13.90;8.05;;;;;;;;;;5052635;28;20031;-69
2021/10/31 02:24:42;;;;;;;17.52;8.35;;;;;;;;;;5045436;28;20079;-69
2021/10/31 02:27:12;;;;;;;16.00;7.80;;;;;;;;;;5039559;28;20515;-68
2021/10/31 02:29:54;;;;;;;39.67;9.90;;;;;;;;;;5045755;28;20029;-69
2021/10/31 02:32:22;;;;;;;17.30;8.88;;;;;;;;;;5047220;28;20040;-69
2021/10/31 02:34:48;;;;;;;17.95;9.20;;;;;;;;;;5037634;28;20079;-68
2021/10/31 02:37:14;;;;;;;17.27;8.38;;;;;;;;;;5026810;28;20067;-69
2021/10/31 02:39:41;;;;;;;17.40;8.80;;;;;;;;;;5038814;28;20037;-69
2021/10/31 02:42:07;;;;;;;16.60;8.38;;;;;;;;;;5040437;28;20369;-69
2021/10/31 02:44:33;;;;;;;18.80;8.98;;;;;;;;;;5044637;28;20056;-69
2021/10/31 02:47:00;;;;;;;19.65;8.75;;;;;;;;;;5045082;28;20025;-69
2021/10/31 02:49:27;;;;;;;20.38;9.02;;;;;;;;;;5039774;28;20026;-69
2021/10/31 02:51:53;;;;;;;15.73;8.55;;;;;;;;;;5045553;28;20108;-69
2021/10/31 02:54:19;;;;;;;19.50;8.63;;;;;;;;;;5048511;28;20490;-69
2021/10/31 02:56:51;;;;;;;14.23;8.45;;;;;;;;;;5021822;28;20040;-69
2021/10/31 02:59:21;;;;;;;13.88;8.57;;;;;;;;;;5028327;28;20029;-69
2021/10/31 03:01:48;;;;;;;21.48;8.75;;;;;;;;;;5024193;28;20055;-69
2021/10/31 03:04:16;;;;;;;16.83;8.88;;;;;;;;;;5042243;28;20025;-69
2021/10/31 03:06:44;;;;;;;14.40;8.98;;;;;;;;;;5030700;28;20075;-69
2021/10/31 03:09:10;;;;;;;15.43;8.90;;;;;;;;;;5020184;28;20507;-69
2021/10/31 03:11:36;;;;;;;16.75;9.23;;;;;;;;;;5038024;28;20085;-69
2021/10/31 03:14:02;;;;;;;15.75;10.10;;;;;;;;;;5041023;28;20020;-69
2021/10/31 03:16:29;;;;;;;38.85;10.75;;;;;;;;;;5034953;28;20059;-69
2021/10/31 03:18:55;;;;;;;19.75;10.30;;;;;;;;;;5041951;28;20033;-69
2021/10/31 03:21:21;;;;;;;19.63;10.52;;;;;;;;;;5050023;28;20029;-68
2021/10/31 03:23:47;;;;;;;18.13;11.07;;;;;;;;;;5046109;28;20096;-69
2021/10/31 03:26:13;;;;;;;19.52;10.52;;;;;;;;;;5037801;28;20376;-68
2021/10/31 03:28:39;;;;;;;23.48;12.23;;;;;;;;;;5045010;28;20442;-69
2021/10/31 03:31:05;;;;;;;17.65;10.90;;;;;;;;;;5046255;28;20119;-69
2021/10/31 03:33:31;;;;;;;20.85;10.77;;;;;;;;;;5042432;28;20036;-69
2021/10/31 03:35:57;;;;;;;18.77;11.32;;;;;;;;;;5042074;28;20040;-68
2021/10/31 03:38:24;;;;;;;23.42;11.07;;;;;;;;;;5045102;28;20032;-69
2021/10/31 03:40:50;;;;;;;17.65;10.70;;;;;;;;;;5047860;28;20083;-69
2021/10/31 03:43:19;;;;;;;18.10;11.13;;;;;;;;;;5035185;28;20264;-69
2021/10/31 03:45:45;;;;;;;18.60;11.65;;;;;;;;;;5022002;28;20040;-69
2021/10/31 03:48:11;;;;;;;21.52;10.98;;;;;;;;;;5042221;28;20302;-69
2021/10/31 03:50:37;;;;;;;18.02;11.32;;;;;;;;;;5049129;28;20021;-69
2021/10/31 03:53:03;;;;;;;17.77;10.40;;;;;;;;;;5043626;28;20029;-68
2021/10/31 03:55:29;;;;;;;21.15;10.85;;;;;;;;;;5047663;28;20267;-69
2021/10/31 03:57:56;;;;;;;22.20;11.07;;;;;;;;;;5042391;28;20047;-68
2021/10/31 04:00:23;;;;;;;16.70;10.52;;;;;;;;;;5044386;28;20021;-68
2021/10/31 04:02:49;;;;;;;21.60;11.60;;;;;;;;;;5029859;28;20128;-69
2021/10/31 04:05:15;;;;;;;19.60;11.90;;;;;;;;;;5046337;28;20039;-69
2021/10/31 04:07:47;;;;;;;19.45;10.93;;;;;;;;;;5038848;28;20407;-69
2021/10/31 04:10:13;;;;;;;16.40;10.75;;;;;;;;;;5039512;28;20111;-69
2021/10/31 04:12:39;;;;;;;19.10;11.77;;;;;;;;;;5047457;28;20044;-69
2021/10/31 04:15:06;;;;;;;19.48;11.85;;;;;;;;;;5022886;28;20036;-68
2021/10/31 04:17:32;;;;;;;18.95;10.98;;;;;;;;;;5038356;28;20036;-68
2021/10/31 04:19:59;;;;;;;19.48;10.48;;;;;;;;;;5041536;28;20492;-69
2021/10/31 04:22:25;;;;;;;15.13;10.30;;;;;;;;;;5027971;28;20037;-68
2021/10/31 04:24:51;;;;;;;19.05;10.10;;;;;;;;;;5047357;28;20043;-68
2021/10/31 04:27:18;;;;;;;17.40;11.27;;;;;;;;;;5045069;28;20020;-68
2021/10/31 04:29:44;;;;;;;17.00;10.85;;;;;;;;;;5036916;28;20033;-69
2021/10/31 04:32:10;;;;;;;19.45;10.77;;;;;;;;;;5032917;28;20029;-68
2021/10/31 04:34:36;;;;;;;20.50;12.75;;;;;;;;;;5038352;28;20021;-70
2021/10/31 04:37:03;;;;;;;27.75;12.15;;;;;;;;;;5043980;28;20403;-68
2021/10/31 04:39:29;;;;;;;19.70;11.80;;;;;;;;;;5049064;28;20160;-69
2021/10/31 04:42:03;;;;;;;18.50;11.63;;;;;;;;;;5049123;28;20064;-68
2021/10/31 04:44:29;;;;;;;22.52;12.63;;;;;;;;;;5032136;28;20575;-68
2021/10/31 04:46:55;;;;;;;22.15;13.27;;;;;;;;;;5050177;28;20502;-69
2021/10/31 04:49:22;;;;;;;21.02;13.35;;;;;;;;;;5044360;28;20021;-68
2021/10/31 04:51:48;;;;;;;22.23;13.00;;;;;;;;;;5050704;28;20037;-69
2021/10/31 04:54:14;;;;;;;25.30;13.60;;;;;;;;;;5039122;28;20026;-68
2021/10/31 04:56:40;;;;;;;26.40;13.65;;;;;;;;;;5047466;28;20033;-68
2021/10/31 04:59:06;;;;;;;25.00;15.02;;;;;;;;;;5037507;28;20030;-69
2021/10/31 05:01:33;;;;;;;23.80;14.02;;;;;;;;;;5034789;28;20033;-69
2021/10/31 05:03:59;;;;;;;27.75;14.85;;;;;;;;;;5043580;28;20017;-69
2021/10/31 05:06:25;;;;;;;28.83;15.98;;;;;;;;;;5043285;28;20062;-69
2021/10/31 05:08:51;;;;;;;24.58;15.10;;;;;;;;;;5045479;28;20025;-69
2021/10/31 05:11:17;;;;;;;27.38;15.15;;;;;;;;;;5047062;28;20493;-69
2021/10/31 05:13:44;;;;;;;26.40;15.80;;;;;;;;;;5039761;28;20021;-69
2021/10/31 05:16:10;;;;;;;30.10;15.48;;;;;;;;;;5040930;28;20109;-69
2021/10/31 05:18:36;;;;;;;26.15;15.23;;;;;;;;;;5041494;28;20028;-69
2021/10/31 05:21:02;;;;;;;27.30;15.88;;;;;;;;;;5035986;28;20071;-69
2021/10/31 05:23:29;;;;;;;35.88;17.63;;;;;;;;;;5039351;28;20495;-69
2021/10/31 05:25:55;;;;;;;28.58;17.30;;;;;;;;;;5046677;28;20039;-69
2021/10/31 05:28:21;;;;;;;34.75;18.15;;;;;;;;;;5051466;28;20390;-69
2021/10/31 05:30:47;;;;;;;33.85;18.27;;;;;;;;;;5031307;28;20384;-69
2021/10/31 05:33:14;;;;;;;31.80;17.70;;;;;;;;;;5036701;28;20017;-69
2021/10/31 05:35:40;;;;;;;34.35;20.20;;;;;;;;;;5022184;28;20047;-69
2021/10/31 05:38:06;;;;;;;47.28;20.98;;;;;;;;;;5037773;28;20021;-69
2021/10/31 05:40:32;;;;;;;34.10;19.48;;;;;;;;;;5043757;28;20056;-69
2021/10/31 05:42:58;;;;;;;33.78;20.27;;;;;;;;;;5042768;28;20488;-69
2021/10/31 05:45:25;;;;;;;39.05;21.20;;;;;;;;;;5035114;28;20044;-69
2021/10/31 05:47:52;;;;;;;39.78;22.20;;;;;;;;;;5043728;28;20021;-70
2021/10/31 05:50:18;;;;;;;40.25;21.90;;;;;;;;;;5051142;28;20294;-69
2021/10/31 05:52:45;;;;;;;42.53;23.20;;;;;;;;;;5045925;28;20033;-69
2021/10/31 05:55:12;;;;;;;42.42;22.23;;;;;;;;;;5044381;28;20108;-69
2021/10/31 05:57:38;;;;;;;40.28;23.48;;;;;;;;;;5031802;28;20093;-69
2021/10/31 06:00:06;;;;;;;43.22;22.42;;;;;;;;;;5032259;28;20025;-69
2021/10/31 06:02:32;;;;;;;42.65;22.05;;;;;;;;;;5024971;28;20029;-69
2021/10/31 06:04:59;;;;;;;50.28;24.65;;;;;;;;;;5035638;28;20043;-69
2021/10/31 06:07:26;;;;;;;45.90;24.52;;;;;;;;;;5051165;28;21386;-69
2021/10/31 06:09:52;;;;;;;47.85;25.45;;;;;;;;;;5037856;28;20029;-69
2021/10/31 06:12:18;;;;;;;53.10;27.38;;;;;;;;;;5042626;28;20495;-69
2021/10/31 06:14:45;;;;;;;51.58;26.63;;;;;;;;;;5047480;28;20033;-70
2021/10/31 06:17:11;;;;;;;57.00;28.95;;;;;;;;;;5048950;28;20029;-70
2021/10/31 06:19:37;;;;;;;59.58;28.00;;;;;;;;;;5031870;28;20139;-69
2021/10/31 06:22:03;;;;;;;63.65;29.45;;;;;;;;;;5040355;28;20028;-69
2021/10/31 06:24:29;;;;;;;70.15;32.03;;;;;;;;;;5048120;28;20029;-69
2021/10/31 06:26:55;;;;;;;62.95;29.80;;;;;;;;;;5047685;28;20510;-69
2021/10/31 06:29:21;;;;;;;66.78;32.35;;;;;;;;;;5046669;28;20036;-69
2021/10/31 06:31:48;;;;;;;76.03;33.25;;;;;;;;;;5046473;28;20025;-69
2021/10/31 06:34:14;;;;;;;73.47;33.22;;;;;;;;;;5044700;28;20025;-69
2021/10/31 06:36:40;;;;;;;76.75;36.03;;;;;;;;;;5046747;28;20024;-69
2021/10/31 06:39:06;;;;;;;71.03;33.38;;;;;;;;;;5047327;28;20107;-69
2021/10/31 06:41:33;;;;;;;78.90;34.30;;;;;;;;;;5049841;28;20029;-70
2021/10/31 06:43:59;;;;;;;78.85;34.90;;;;;;;;;;5048725;28;20037;-70
2021/10/31 06:46:25;;;;;;;72.40;34.58;;;;;;;;;;5049621;28;20086;-69
2021/10/31 06:48:52;;;;;;;77.00;37.05;;;;;;;;;;5045055;28;20108;-69
2021/10/31 06:51:18;;;;;;;72.97;33.83;;;;;;;;;;5050704;28;20021;-70
2021/10/31 06:53:44;;;;;;;80.72;33.78;;;;;;;;;;5049599;28;20029;-69
2021/10/31 06:56:11;;;;;;;74.82;35.13;;;;;;;;;;5031927;28;20114;-70
2021/10/31 06:58:37;;;;;;;79.07;34.10;;;;;;;;;;5042170;28;20056;-70
2021/10/31 07:01:03;;;;;;;84.50;34.63;;;;;;;;;;5026783;28;20434;-70
2021/10/31 07:03:30;;;;;;;65.43;32.92;;;;;;;;;;5048920;28;20024;-70
2021/10/31 07:05:56;;;;;;;79.65;36.47;;;;;;;;;;5047710;28;20788;-70
2021/10/31 07:08:23;;;;;;;79.10;33.55;;;;;;;;;;5045761;28;20418;-70
2021/10/31 07:10:49;;;;;;;76.95;35.08;;;;;;;;;;5046488;28;20020;-70
2021/10/31 07:13:15;;;;;;;75.95;36.17;;;;;;;;;;5049028;28;20301;-69
2021/10/31 07:15:41;;;;;;;80.20;35.92;;;;;;;;;;5048043;28;20112;-70
2021/10/31 07:18:07;;;;;;;70.43;33.90;;;;;;;;;;5041665;28;20203;-70
2021/10/31 07:20:34;;;;;;;73.35;34.33;;;;;;;;;;5045839;28;20112;-72
2021/10/31 07:23:00;;;;;;;69.18;33.40;;;;;;;;;;5044810;28;20423;-70
2021/10/31 07:25:27;;;;;;;78.20;36.90;;;;;;;;;;5050554;28;20164;-69
2021/10/31 07:27:54;;;;;;;75.35;36.00;;;;;;;;;;5044891;28;20021;-70
2021/10/31 07:30:20;;;;;;;75.82;37.55;;;;;;;;;;5046124;28;20384;-70
2021/10/31 07:32:53;;;;;;;66.47;29.67;;;;;;;;;;5048636;28;20033;-70
2021/10/31 07:35:19;;;;;;;74.90;34.80;;;;;;;;;;5046772;28;20440;-70
2021/10/31 07:37:45;;;;;;;67.22;32.35;;;;;;;;;;5044271;28;20120;-70
2021/10/31 07:40:11;;;;;;;69.28;33.35;;;;;;;;;;5048188;28;20126;-70
2021/10/31 07:42:37;;;;;;;74.43;36.58;;;;;;;;;;5047154;28;20631;-70
2021/10/31 07:45:04;;;;;;;72.55;36.30;;;;;;;;;;5047997;28;20128;-70
2021/10/31 07:47:30;;;;;;;73.82;37.63;;;;;;;;;;5047847;28;20029;-70
2021/10/31 07:49:56;;;;;;;70.53;35.58;;;;;;;;;;5047097;28;20144;-70
2021/10/31 07:52:22;;;;;;;71.95;37.65;;;;;;;;;;5047181;28;20427;-70
2021/10/31 07:54:49;;;;;;;77.22;35.08;;;;;;;;;;5049120;28;20025;-70
2021/10/31 07:57:18;;;;;;;70.72;36.03;;;;;;;;;;5045552;28;20033;-69
2021/10/31 07:59:44;;;;;;;66.82;33.20;;;;;;;;;;5049984;28;20032;-70
2021/10/31 08:02:10;;;;;;;68.88;35.20;;;;;;;;;;5048498;28;20032;-70
2021/10/31 08:04:36;;;;;;;66.90;35.50;;;;;;;;;;5046524;28;20032;-70
2021/10/31 08:07:03;;;;;;;67.70;34.67;;;;;;;;;;5049788;28;20017;-70
2021/10/31 08:09:29;;;;;;;67.43;33.42;;;;;;;;;;5046945;28;20029;-70
2021/10/31 08:11:55;;;;;;;63.33;33.20;;;;;;;;;;5050098;28;20246;-70
2021/10/31 08:14:21;;;;;;;63.22;33.28;;;;;;;;;;5046303;28;20024;-70
2021/10/31 08:16:47;;;;;;;63.17;33.67;;;;;;;;;;5046645;28;20029;-70
2021/10/31 08:19:13;;;;;;;62.05;31.35;;;;;;;;;;5046076;28;20056;-70
2021/10/31 08:21:39;;;;;;;59.42;32.55;;;;;;;;;;5046506;28;20048;-70
2021/10/31 08:24:06;;;;;;;54.78;31.60;;;;;;;;;;5046899;28;20052;-70
2021/10/31 08:26:33;;;;;;;54.70;29.33;;;;;;;;;;5047396;28;20017;-70
2021/10/31 08:29:02;;;;;;;51.38;27.52;;;;;;;;;;5028843;28;20028;-71
2021/10/31 08:31:31;;;;;;;47.88;28.10;;;;;;;;;;5050866;28;20078;-71
2021/10/31 08:33:59;;;;;;;44.30;25.60;;;;;;;;;;5049489;28;20037;-71
2021/10/31 08:36:26;;;;;;;47.95;26.15;;;;;;;;;;5050554;28;20426;-71
2021/10/31 08:38:52;;;;;;;48.67;25.33;;;;;;;;;;5042167;28;20033;-71
2021/10/31 08:41:22;;;;;;;45.00;25.27;;;;;;;;;;5050989;28;20043;-71
2021/10/31 08:43:49;;;;;;;38.92;21.17;;;;;;;;;;5048628;28;20037;-72
2021/10/31 08:46:16;;;;;;;36.70;22.42;;;;;;;;;;5038516;28;20025;-70
2021/10/31 08:48:42;;;;;;;41.92;24.58;;;;;;;;;;5047681;28;20107;-72
2021/10/31 08:51:08;;;;;;;42.58;21.33;;;;;;;;;;5047258;28;20021;-73
2021/10/31 08:53:35;;;;;;;36.78;21.13;;;;;;;;;;5033157;28;20074;-71
2021/10/31 08:56:01;;;;;;;37.60;21.45;;;;;;;;;;5049402;28;20616;-72
2021/10/31 08:58:27;;;;;;;38.08;20.58;;;;;;;;;;5027323;28;20025;-71
2021/10/31 09:00:54;;;;;;;31.48;17.70;;;;;;;;;;5051700;28;20071;-73
2021/10/31 09:03:20;;;;;;;32.20;18.35;;;;;;;;;;5048368;28;20029;-70
2021/10/31 09:05:46;;;;;;;33.17;19.58;;;;;;;;;;5045685;28;20036;-71
2021/10/31 09:08:12;;;;;;;34.47;19.30;;;;;;;;;;5043832;28;20036;-71
2021/10/31 09:10:39;;;;;;;29.60;17.83;;;;;;;;;;5044860;28;20407;-71
2021/10/31 09:13:06;;;;;;;30.45;19.20;;;;;;;;;;5046432;28;20029;-71
2021/10/31 09:15:33;;;;;;;30.92;17.58;;;;;;;;;;5046935;28;20037;-70
2021/10/31 09:18:03;;;;;;;28.27;16.65;;;;;;;;;;5043977;28;20051;-71
2021/10/31 09:20:30;;;;;;;27.50;15.07;;;;;;;;;;5048394;28;20179;-71
2021/10/31 09:23:00;;;;;;;25.05;14.55;;;;;;;;;;5032219;28;20037;-71
2021/10/31 09:25:27;;;;;;;26.15;14.70;;;;;;;;;;5050690;28;20028;-71
2021/10/31 09:27:57;;;;;;;22.98;14.27;;;;;;;;;;5044809;28;20633;-71
2021/10/31 09:30:25;;;;;;;27.77;14.10;;;;;;;;;;5029076;28;20491;-72
2021/10/31 09:32:52;;;;;;;25.48;13.32;;;;;;;;;;5048338;28;20029;-72
2021/10/31 09:35:19;;;;;;;25.67;14.32;;;;;;;;;;5049621;28;20036;-72
2021/10/31 09:37:47;;;;;;;23.95;13.15;;;;;;;;;;5047374;28;20041;-73
2021/10/31 09:40:15;;;;;;;24.77;12.48;;;;;;;;;;5049956;28;20052;-72
2021/10/31 09:42:41;;;;;;;21.25;11.65;;;;;;;;;;5029278;28;20056;-71
2021/10/31 09:45:08;;;;;;;22.58;11.40;;;;;;;;;;5049109;28;20128;-73
2021/10/31 09:47:34;;;;;;;20.17;11.32;;;;;;;;;;5048354;28;20032;-71
2021/10/31 09:50:00;;;;;;;19.33;10.85;;;;;;;;;;5042594;28;20146;-73
2021/10/31 09:52:27;;;;;;;22.75;10.82;;;;;;;;;;5049741;28;20036;-71
2021/10/31 09:54:53;;;;;;;18.63;10.02;;;;;;;;;;5048849;28;20055;-73
2021/10/31 09:57:19;;;;;;;13.30;9.27;;;;;;;;;;5050556;28;20028;-71
2021/10/31 09:59:54;;;;;;;17.45;10.57;;;;;;;;;;5042760;28;20037;-72
2021/10/31 10:02:44;;;;;;;19.10;11.48;;;;;;;;;;5043148;28;20064;-72
2021/10/31 10:05:16;;;;;;;13.98;10.00;;;;;;;;;;5048983;28;20487;-73
2021/10/31 10:07:42;;;;;;;13.45;9.52;;;;;;;;;;5049124;28;20036;-72
2021/10/31 10:10:11;;;;;;;16.55;9.50;;;;;;;;;;5029754;28;20024;-71
2021/10/31 10:12:37;;;;;;;17.02;9.48;;;;;;;;;;5048937;28;20036;-72
2021/10/31 10:15:08;;;;;;;15.73;8.25;;;;;;;;;;5042049;28;20387;-73
2021/10/31 10:17:45;;;;;;;14.23;9.07;;;;;;;;;;5042787;28;20027;-73
2021/10/31 10:20:13;;;;;;;14.43;8.18;;;;;;;;;;5043117;28;20423;-72
2021/10/31 10:22:39;;;;;;;15.15;8.82;;;;;;;;;;5049163;28;20029;-72
2021/10/31 10:25:05;;;;;;;15.18;8.35;;;;;;;;;;5048581;28;20024;-73
2021/10/31 10:27:38;;;;;;;12.30;8.18;;;;;;;;;;5048162;28;20037;-73
2021/10/31 10:30:14;;;;;;;16.20;8.60;;;;;;;;;;5025301;28;20100;-72
2021/10/31 10:32:55;;;;;;;11.10;8.52;;;;;;;;;;5050821;28;20446;-73
2021/10/31 10:35:23;;;;;;;12.00;7.87;;;;;;;;;;5044238;28;20033;-72
2021/10/31 10:37:49;;;;;;;13.43;7.88;;;;;;;;;;5046527;28;20482;-73
2021/10/31 10:40:23;;;;;;;12.43;8.02;;;;;;;;;;5047248;28;20039;-73
2021/10/31 10:42:53;;;;;;;11.68;7.65;;;;;;;;;;5046520;28;20051;-73
2021/10/31 10:45:24;;;;;;;13.73;7.72;;;;;;;;;;5049062;28;20124;-73
2021/10/31 10:47:56;;;;;;;12.38;8.20;;;;;;;;;;5048715;28;20259;-72
2021/10/31 10:50:25;;;;;;;18.55;7.93;;;;;;;;;;5049051;28;20108;-73
2021/10/31 10:52:53;;;;;;;16.83;8.02;;;;;;;;;;5049615;28;20047;-72
2021/10/31 10:55:19;;;;;;;14.48;7.72;;;;;;;;;;5050258;28;20036;-72
2021/10/31 10:57:49;;;;;;;14.23;8.13;;;;;;;;;;5046780;28;20102;-71
2021/10/31 11:00:18;;;;;;;12.80;8.13;;;;;;;;;;5035511;28;20377;-71
2021/10/31 11:03:04;;;;;;;15.82;8.18;;;;;;;;;;5046658;28;20045;-71
2021/10/31 11:05:31;;;;;;;15.20;6.25;;;;;;;;;;5030056;28;20036;-70
2021/10/31 11:07:59;;;;;;;11.88;6.53;;;;;;;;;;5044530;28;20124;-71
2021/10/31 11:10:27;;;;;;;14.75;5.95;;;;;;;;;;5046252;28;20036;-71
2021/10/31 11:12:56;;;;;;;14.38;5.82;;;;;;;;;;5028123;28;20028;-72
2021/10/31 11:15:23;;;;;;;11.07;6.18;;;;;;;;;;5046927;28;20040;-72
2021/10/31 11:17:51;;;;;;;13.48;6.47;;;;;;;;;;5046856;28;20028;-71
2021/10/31 11:20:19;;;;;;;9.70;5.75;;;;;;;;;;5046926;28;20024;-72
2021/10/31 11:22:47;;;;;;;13.93;5.78;;;;;;;;;;5045769;28;20036;-72
2021/10/31 11:25:14;;;;;;;10.60;5.50;;;;;;;;;;5043228;28;20049;-72
2021/10/31 11:27:40;;;;;;;11.50;5.80;;;;;;;;;;5045536;28;20116;-71
2021/10/31 11:30:07;;;;;;;11.05;5.07;;;;;;;;;;5041256;28;20028;-71
2021/10/31 11:32:35;;;;;;;14.30;5.15;;;;;;;;;;5046347;28;20052;-72
2021/10/31 11:35:02;;;;;;;10.10;4.93;;;;;;;;;;5044026;28;20025;-72
2021/10/31 11:37:34;;;;;;;8.68;5.43;;;;;;;;;;5039910;28;20105;-72
2021/10/31 11:40:02;;;;;;;13.48;5.43;;;;;;;;;;5040691;28;20398;-72
2021/10/31 11:42:35;;;;;;;8.63;5.65;;;;;;;;;;5045912;28;20030;-72
2021/10/31 11:45:09;;;;;;;10.05;6.15;;;;;;;;;;5028629;28;20041;-71
2021/10/31 11:47:37;;;;;;;8.23;5.75;;;;;;;;;;5041214;28;20036;-71
2021/10/31 11:50:08;;;;;;;9.88;5.57;;;;;;;;;;5037537;28;20023;-71
2021/10/31 11:52:44;;;;;;;9.40;6.05;;;;;;;;;;5045645;28;20021;-72
2021/10/31 11:55:25;;;;;;;10.93;6.32;;;;;;;;;;5046148;28;20115;-70
2021/10/31 11:58:03;;;;;;;13.10;6.13;;;;;;;;;;5041442;28;20172;-70
2021/10/31 12:00:30;;;;;;;17.63;6.43;;;;;;;;;;5042610;28;20068;-71
2021/10/31 12:03:02;;;;;;;11.23;5.65;;;;;;;;;;5045060;28;20566;-73
2021/10/31 12:05:36;;;;;;;12.35;5.60;;;;;;;;;;5040420;28;20021;-71
2021/10/31 12:08:03;;;;;;;16.52;8.00;;;;;;;;;;5032541;28;20428;-71
2021/10/31 12:10:31;;;;;;;14.60;6.65;;;;;;;;;;5044015;28;20025;-72
2021/10/31 12:13:16;;;;;;;15.65;7.50;;;;;;;;;;5039310;28;20047;-73
2021/10/31 12:16:03;;;;;;;12.30;6.32;;;;;;;;;;5045279;28;20029;-70
2021/10/31 12:18:49;;;;;;;13.65;6.20;;;;;;;;;;5036615;28;20037;-71
2021/10/31 12:21:18;;;;;;;11.43;5.57;;;;;;;;;;5038794;28;20026;-71
2021/10/31 12:23:52;;;;;;;12.82;6.70;;;;;;;;;;5029372;28;20061;-71
2021/10/31 12:26:19;;;;;;;10.68;5.35;;;;;;;;;;5043838;28;20025;-73
2021/10/31 12:28:45;;;;;;;8.77;4.95;;;;;;;;;;5038273;28;20021;-72
2021/10/31 12:31:44;;;;;;;13.15;5.75;;;;;;;;;;5045025;28;20024;-74
2021/10/31 12:34:18;;;;;;;9.98;4.90;;;;;;;;;;4984116;28;20040;-74
2021/10/31 12:36:45;;;;;;;10.43;4.28;;;;;;;;;;5040161;28;20559;-72
2021/10/31 12:39:27;;;;;;;7.55;4.68;;;;;;;;;;5038394;28;20034;-72
2021/10/31 12:42:12;;;;;;;9.57;4.15;;;;;;;;;;5047589;28;20060;-72
2021/10/31 12:44:39;;;;;;;8.93;4.30;;;;;;;;;;5046827;28;20041;-72
2021/10/31 12:47:07;;;;;;;7.60;3.90;;;;;;;;;;5044333;28;20439;-74
2021/10/31 12:49:33;;;;;;;9.88;4.78;;;;;;;;;;5040938;28;20099;-74
2021/10/31 12:52:03;;;;;;;12.30;4.50;;;;;;;;;;5051148;28;20025;-74
2021/10/31 12:54:32;;;;;;;12.95;4.55;;;;;;;;;;5050167;28;20025;-72
2021/10/31 12:56:59;;;;;;;12.52;5.20;;;;;;;;;;5049341;28;20505;-73
2021/10/31 12:59:25;;;;;;;11.57;4.70;;;;;;;;;;5041943;28;20036;-73
2021/10/31 13:02:08;;;;;;;13.07;5.93;;;;;;;;;;5044012;28;20057;-72
2021/10/31 13:04:52;;;;;;;8.20;4.95;;;;;;;;;;5039914;28;20017;-72
2021/10/31 13:07:19;;;;;;;11.55;5.72;;;;;;;;;;5044297;28;20021;-72
2021/10/31 13:09:48;;;;;;;8.02;4.72;;;;;;;;;;5039291;28;20536;-72
2021/10/31 13:12:24;;;;;;;7.63;4.47;;;;;;;;;;5042149;28;20029;-73
2021/10/31 13:14:50;;;;;;;9.60;4.78;;;;;;;;;;5040351;28;20025;-74
2021/10/31 13:17:17;;;;;;;10.50;5.53;;;;;;;;;;5043772;28;20035;-73
2021/10/31 13:19:43;;;;;;;15.65;5.55;;;;;;;;;;5040105;28;20040;-73
2021/10/31 13:22:20;;;;;;;12.05;5.13;;;;;;;;;;5043777;28;20059;-74
2021/10/31 13:24:48;;;;;;;8.88;5.53;;;;;;;;;;5043490;28;20388;-72
2021/10/31 13:27:19;;;;;;;8.82;5.05;;;;;;;;;;5042048;28;20510;-72
2021/10/31 13:29:46;;;;;;;7.35;4.88;;;;;;;;;;5036999;28;20029;-72
2021/10/31 13:32:12;;;;;;;10.23;5.30;;;;;;;;;;5041163;28;20029;-73
2021/10/31 13:34:39;;;;;;;8.85;5.13;;;;;;;;;;5042577;28;20025;-72
2021/10/31 13:37:08;;;;;;;7.57;4.72;;;;;;;;;;5042841;28;20028;-72
2021/10/31 13:39:34;;;;;;;10.02;4.70;;;;;;;;;;5040855;28;20053;-73
2021/10/31 13:42:00;;;;;;;11.25;5.35;;;;;;;;;;5042256;28;20098;-73
2021/10/31 13:44:27;;;;;;;9.80;5.00;;;;;;;;;;5042268;28;20048;-72
2021/10/31 13:49:43;;;;;;;8.35;4.93;;;;;;;;;;5035389;28;20029;-71
2021/10/31 13:52:09;;;;;;;10.35;5.03;;;;;;;;;;5042123;28;20098;-72
2021/10/31 13:54:35;;;;;;;10.68;5.97;;;;;;;;;;5046176;28;20534;-72
2021/10/31 13:57:02;;;;;;;13.75;5.30;;;;;;;;;;5043281;28;20491;-72
2021/10/31 13:59:28;;;;;;;12.57;5.60;;;;;;;;;;5038424;28;20502;-71
2021/10/31 14:01:58;;;;;;;12.05;5.70;;;;;;;;;;5043537;28;20113;-72
2021/10/31 14:04:33;;;;;;;12.75;6.93;;;;;;;;;;5042404;28;20376;-72
2021/10/31 14:07:03;;;;;;;13.93;8.55;;;;;;;;;;5047716;28;20171;-71
2021/10/31 14:09:29;;;;;;;16.05;7.47;;;;;;;;;;5037663;28;20059;-71
2021/10/31 14:12:03;;;;;;;13.55;6.22;;;;;;;;;;5043667;28;20606;-73
2021/10/31 14:14:40;;;;;;;13.93;6.75;;;;;;;;;;5045491;28;21587;-72
2021/10/31 14:17:10;;;;;;;8.27;4.80;;;;;;;;;;5056113;22;20040;-68
2021/10/31 14:19:37;;;;;;;9.32;5.22;;;;;;;;;;5034847;28;20033;-67
2021/10/31 14:22:03;;;;;;;11.88;5.70;;;;;;;;;;5047184;28;20074;-67
2021/10/31 14:24:30;;;;;;;11.10;6.40;;;;;;;;;;5046693;28;20393;-67
2021/10/31 14:26:56;;;;;;;12.95;5.38;;;;;;;;;;5046521;28;20041;-67
2021/10/31 14:29:27;;;;;;;9.25;5.45;;;;;;;;;;5045996;28;20052;-67
2021/10/31 14:31:53;;;;;;;7.72;5.57;;;;;;;;;;5049035;28;20386;-67
2021/10/31 14:34:22;;;;;;;11.10;5.40;;;;;;;;;;5046412;28;20076;-67
2021/10/31 14:36:48;;;;;;;11.52;5.38;;;;;;;;;;5053156;28;20511;-67